Christina O — C6FN7 — position and weather

sailwx.info

Track history (hours):
 
Tides and Currents Weather Stations Pressure Air Temp Water Temp Dewpoint Dewpoint Depression Visibility Wind Speed Wind Dir Waves Ship Positions

Christina O

Operator: V Ships Leisure SAM

Last reported at 2016-Sep-24 03:33 UTC. Time now 2016-Sep-29 08:32 UTC.
Position N 45°48' W 073°20'.

Length 186 m; draft 6.1 m.

Type: Passenger vessel. MMSI: 308322000.

Date/timePositionNaut miles runAvg speedWind from/ knotsBaromVisibWave heightAir tempDewpointWater temp
2016-Sep-24 03:33N 45°48' W 073°20'1413.5
2016-Sep-24 02:33N 45°36' W 073°30'5 3.6
2016-Sep-24 01:16N 45°32' W 073°33'0 0.0
2016-Sep-24 00:33N 45°32' W 073°32'0 0.0
2016-Sep-23 19:33N 45°32' W 073°32'0 0.0
2016-Sep-23 17:27N 45°32' W 073°32'0 0.0
2016-Sep-23 16:31N 45°32' W 073°33'0 0.0
2016-Sep-23 15:19N 45°32' W 073°32'0 0.0
2016-Sep-23 13:28N 45°32' W 073°33'6 1.5
2016-Sep-23 09:33N 45°37' W 073°30'3010.1
2016-Sep-23 06:33N 46°03' W 073°07'2411.7
2016-Sep-23 04:33N 46°16' W 072°39'  
2016-Sep-19 19:32N 48°58' W 057°57'0 0.0
2016-Sep-19 18:32N 48°58' W 057°57'0 0.0
2016-Sep-19 16:29N 48°58' W 057°57'0 0.0
2016-Sep-19 14:31N 48°58' W 057°57'0 0.0
2016-Sep-19 13:32N 48°58' W 057°57'0 0.0
2016-Sep-19 12:32N 48°58' W 057°57'0 0.0
2016-Sep-19 11:32N 48°58' W 057°57'18 8.9
2016-Sep-19 09:33N 49°08' W 058°18'9715.8
2016-Sep-19 03:24N 50°43' W 057°47'1517.4
2016-Sep-19 02:33N 50°57' W 057°41'  
Track history (hours):
 
Tides and Currents Weather Stations Pressure Air Temp Water Temp Dewpoint Dewpoint Depression Visibility Wind Speed Wind Dir Waves Ship Positions

Christina O

Operator: V Ships Leisure SAM

Last reported at 2016-Sep-24 03:33 UTC. Time now 2016-Sep-29 08:32 UTC.
Position N 45°48' W 073°20'.

Length 186 m; draft 6.1 m.

Type: Passenger vessel. MMSI: 308322000.

Date/timePositionNaut miles runAvg speedWind from/ knotsBaromVisibWave heightAir tempDewpointWater temp
2016-Sep-24 03:33N 45°48' W 073°20'1413.5
2016-Sep-24 02:33N 45°36' W 073°30'5 3.6
2016-Sep-24 01:16N 45°32' W 073°33'0 0.0
2016-Sep-24 00:33N 45°32' W 073°32'0 0.0
2016-Sep-23 19:33N 45°32' W 073°32'0 0.0
2016-Sep-23 17:27N 45°32' W 073°32'0 0.0
2016-Sep-23 16:31N 45°32' W 073°33'0 0.0
2016-Sep-23 15:19N 45°32' W 073°32'0 0.0
2016-Sep-23 13:28N 45°32' W 073°33'6 1.5
2016-Sep-23 09:33N 45°37' W 073°30'3010.1
2016-Sep-23 06:33N 46°03' W 073°07'2411.7
2016-Sep-23 04:33N 46°16' W 072°39'  
2016-Sep-19 19:32N 48°58' W 057°57'0 0.0
2016-Sep-19 18:32N 48°58' W 057°57'0 0.0
2016-Sep-19 16:29N 48°58' W 057°57'0 0.0
2016-Sep-19 14:31N 48°58' W 057°57'0 0.0
2016-Sep-19 13:32N 48°58' W 057°57'0 0.0
2016-Sep-19 12:32N 48°58' W 057°57'0 0.0
2016-Sep-19 11:32N 48°58' W 057°57'18 8.9
2016-Sep-19 09:33N 49°08' W 058°18'9715.8
2016-Sep-19 03:24N 50°43' W 057°47'1517.4
2016-Sep-19 02:33N 50°57' W 057°41'  

Dump ship's entire track history